Airfield :
LOGIN :

Register | Disclaimer

   EN    FR    IT 

 










Legend :    VFR   Marginal VFR   IFR   Intensive IFR   Very Intensive IFR
Visi :
Ceiling :
>= 8 km
>= 3000ft
5 to 8 km
1000 to 3000 ft
1500m to 5 km
500 to 1000 ft
800 to 1500m
200 to 500 ft
< 800m
< 200 ft
Symbols :   Thunderstorms  Fog  Heavy snow  Heavy precipitations  Wind > 20 kt
SIGMETs :     Misc.  Thunderstorms  Icing  Turbulence  Mountain Waves  Volcanic Ashes







- Airport Elevation : 49 ft
- IATA code : SEN
- Download approach charts


EGMC - Southend

CURRENT METAR :
  • 200620Z 31006KT 290V360 9000 -SHRA NSC 11/09 Q1011

EXPIRED METARs :
  • 200550Z 32005KT 9000 -SHRA NSC 11/09 Q1011
  • 200520Z 33006KT 260V350 9000 -SHRA NSC 11/09 Q1011
  • 200450Z 30006KT 9000 NSC 11/09 Q1010
  • 200420Z 31005KT 9000 NSC 11/09 Q1010

TAF TAF EGMC
Valid from the 20 at 06:00 until the 20 at 15:00 UTC


200458Z 2006/2015 32007KT 9999 SCT030
TEMPO 2006/2008 9000 -SHRA
PROB30
TEMPO 2012/2015 7000 SHRA
No reported NOTAMs for that airfield.
1 SIGMET reported for the London FIR (EGTT) :
 
Embedded thunderstorms
EGTT SIGMET 01 VALID 200445/200845 EGRR
EGTT LONDON FIR EMBD TS FCST WI N5451 E00452 - N5348 E00359 - N5348 E00259 - N5500 E00227 - N5500 E00451 - N5451 E00452 TOP FL280 MOV NNW 15KT NC=



MET'MAP, your aeronautical weather chart ! - Copyright ORBIFLY December 2007 - Disclaimer

ORBIFLY MET'MAP TEAM :

Programming & Development : Alexandra Zaïnal
Concept & Development : Baudouin d'Aumeries
Co-Development & Prog : Marc-Olivier Méhu
Technical & hardware support : Manuel Goepfert

Contact : metmap@orbifly.com




SOURCES & CREDITS :

   NOAA